sensor_id;sensor_type;location;lat;lon;timestamp;pressure;altitude;pressure_sealevel;temperature;humidity
65131;BME280;51709;54.912;8.316;2022-10-31T00:02:49;101765.94;;;14.32;86.53
65131;BME280;51709;54.912;8.316;2022-10-31T00:08:09;101760.94;;;14.26;86.79
65131;BME280;51709;54.912;8.316;2022-10-31T00:13:31;101760.19;;;14.21;86.99
65131;BME280;51709;54.912;8.316;2022-10-31T00:18:52;101769.00;;;14.10;87.26
65131;BME280;51709;54.912;8.316;2022-10-31T00:24:13;101784.69;;;13.99;87.24
65131;BME280;51709;54.912;8.316;2022-10-31T00:29:33;101784.06;;;13.88;87.48
65131;BME280;51709;54.912;8.316;2022-10-31T00:34:54;101787.66;;;13.81;87.44
65131;BME280;51709;54.912;8.316;2022-10-31T00:40:14;101785.16;;;13.76;87.70
65131;BME280;51709;54.912;8.316;2022-10-31T00:45:34;101786.97;;;13.71;87.75
65131;BME280;51709;54.912;8.316;2022-10-31T00:50:55;101794.78;;;13.66;87.95
65131;BME280;51709;54.912;8.316;2022-10-31T00:56:16;101787.16;;;13.62;87.76
65131;BME280;51709;54.912;8.316;2022-10-31T01:01:36;101801.00;;;13.58;88.05
65131;BME280;51709;54.912;8.316;2022-10-31T01:06:58;101796.81;;;13.50;88.04
65131;BME280;51709;54.912;8.316;2022-10-31T01:12:18;101805.50;;;13.46;88.06
65131;BME280;51709;54.912;8.316;2022-10-31T01:17:39;101805.56;;;13.41;88.27
65131;BME280;51709;54.912;8.316;2022-10-31T01:23:03;101819.34;;;13.37;88.34
65131;BME280;51709;54.912;8.316;2022-10-31T01:28:24;101809.97;;;13.33;88.27
65131;BME280;51709;54.912;8.316;2022-10-31T01:33:45;101820.31;;;13.30;88.35
65131;BME280;51709;54.912;8.316;2022-10-31T01:39:10;101819.56;;;13.23;88.67
65131;BME280;51709;54.912;8.316;2022-10-31T01:49:54;101818.09;;;13.10;88.71
65131;BME280;51709;54.912;8.316;2022-10-31T01:55:32;101823.28;;;13.07;88.91
65131;BME280;51709;54.912;8.316;2022-10-31T02:00:56;101824.13;;;13.09;88.56
65131;BME280;51709;54.912;8.316;2022-10-31T02:06:38;101835.28;;;13.08;89.09
65131;BME280;51709;54.912;8.316;2022-10-31T02:12:05;101836.16;;;13.07;88.80
65131;BME280;51709;54.912;8.316;2022-10-31T02:17:26;101843.94;;;13.04;88.75
65131;BME280;51709;54.912;8.316;2022-10-31T02:23:17;101845.72;;;13.00;88.99
65131;BME280;51709;54.912;8.316;2022-10-31T02:34:34;101849.28;;;12.91;88.98
65131;BME280;51709;54.912;8.316;2022-10-31T02:45:43;101845.94;;;12.86;89.28
65131;BME280;51709;54.912;8.316;2022-10-31T02:51:05;101851.13;;;12.83;89.20
65131;BME280;51709;54.912;8.316;2022-10-31T02:56:28;101839.16;;;12.79;89.30
65131;BME280;51709;54.912;8.316;2022-10-31T03:02:00;101845.22;;;12.73;89.39
65131;BME280;51709;54.912;8.316;2022-10-31T03:07:47;101840.13;;;12.70;89.66
65131;BME280;51709;54.912;8.316;2022-10-31T03:18:53;101846.19;;;12.64;89.32
65131;BME280;51709;54.912;8.316;2022-10-31T03:24:14;101850.44;;;12.69;89.12
65131;BME280;51709;54.912;8.316;2022-10-31T03:29:37;101859.91;;;12.68;89.41
65131;BME280;51709;54.912;8.316;2022-10-31T03:35:01;101857.34;;;12.68;89.31
65131;BME280;51709;54.912;8.316;2022-10-31T03:40:26;101865.91;;;12.69;89.16
65131;BME280;51709;54.912;8.316;2022-10-31T03:45:48;101877.09;;;12.66;89.17
65131;BME280;51709;54.912;8.316;2022-10-31T03:51:18;101867.72;;;12.62;89.21
65131;BME280;51709;54.912;8.316;2022-10-31T03:56:50;101874.66;;;12.57;89.27
65131;BME280;51709;54.912;8.316;2022-10-31T04:02:14;101876.38;;;12.58;89.54
65131;BME280;51709;54.912;8.316;2022-10-31T04:07:39;101881.44;;;12.61;89.42
65131;BME280;51709;54.912;8.316;2022-10-31T04:13:04;101881.41;;;12.64;89.21
65131;BME280;51709;54.912;8.316;2022-10-31T04:18:39;101882.25;;;12.64;89.37
65131;BME280;51709;54.912;8.316;2022-10-31T04:24:00;101891.75;;;12.61;89.41
65131;BME280;51709;54.912;8.316;2022-10-31T04:29:23;101893.47;;;12.62;89.41
65131;BME280;51709;54.912;8.316;2022-10-31T04:34:43;101891.72;;;12.64;89.20
65131;BME280;51709;54.912;8.316;2022-10-31T04:40:07;101893.47;;;12.62;89.24
65131;BME280;51709;54.912;8.316;2022-10-31T04:46:05;101902.06;;;12.61;89.26
65131;BME280;51709;54.912;8.316;2022-10-31T04:51:28;101893.50;;;12.60;89.65
65131;BME280;51709;54.912;8.316;2022-10-31T04:56:49;101891.78;;;12.59;89.36
65131;BME280;51709;54.912;8.316;2022-10-31T05:02:14;101891.81;;;12.58;89.31
65131;BME280;51709;54.912;8.316;2022-10-31T05:07:45;101884.13;;;12.55;89.59
65131;BME280;51709;54.912;8.316;2022-10-31T05:13:06;101896.13;;;12.54;89.76
65131;BME280;51709;54.912;8.316;2022-10-31T05:18:36;101901.28;;;12.54;89.61
65131;BME280;51709;54.912;8.316;2022-10-31T05:24:25;101904.72;;;12.53;89.55
65131;BME280;51709;54.912;8.316;2022-10-31T05:29:45;101912.44;;;12.55;89.53
65131;BME280;51709;54.912;8.316;2022-10-31T05:35:09;101899.56;;;12.53;89.79
65131;BME280;51709;54.912;8.316;2022-10-31T05:40:56;101906.47;;;12.53;89.75
65131;BME280;51709;54.912;8.316;2022-10-31T05:46:26;101915.00;;;12.53;89.93
65131;BME280;51709;54.912;8.316;2022-10-31T05:52:05;101898.69;;;12.54;89.87
65131;BME280;51709;54.912;8.316;2022-10-31T05:57:36;101907.25;;;12.56;89.81
65131;BME280;51709;54.912;8.316;2022-10-31T06:02:58;101902.94;;;12.61;89.52
65131;BME280;51709;54.912;8.316;2022-10-31T06:08:31;101923.47;;;12.64;89.60
65131;BME280;51709;54.912;8.316;2022-10-31T06:14:00;101923.47;;;12.66;89.78
65131;BME280;51709;54.912;8.316;2022-10-31T06:19:35;101928.63;;;12.64;89.67
65131;BME280;51709;54.912;8.316;2022-10-31T06:24:56;101936.41;;;12.61;90.04
65131;BME280;51709;54.912;8.316;2022-10-31T06:30:26;101941.56;;;12.61;90.04
65131;BME280;51709;54.912;8.316;2022-10-31T06:35:48;101947.53;;;12.63;90.03
65131;BME280;51709;54.912;8.316;2022-10-31T06:41:11;101954.34;;;12.68;89.84
65131;BME280;51709;54.912;8.316;2022-10-31T06:46:36;101954.34;;;12.69;89.95
65131;BME280;51709;54.912;8.316;2022-10-31T06:52:15;101969.78;;;12.68;89.75
65131;BME280;51709;54.912;8.316;2022-10-31T06:57:35;101971.59;;;12.61;89.98
65131;BME280;51709;54.912;8.316;2022-10-31T07:02:58;101970.78;;;12.57;90.35
65131;BME280;51709;54.912;8.316;2022-10-31T07:08:19;101969.88;;;12.60;90.27
65131;BME280;51709;54.912;8.316;2022-10-31T07:13:40;101981.00;;;12.65;90.24
65131;BME280;51709;54.912;8.316;2022-10-31T07:19:01;101988.66;;;12.70;90.05
65131;BME280;51709;54.912;8.316;2022-10-31T07:24:22;101990.31;;;12.75;89.95
65131;BME280;51709;54.912;8.316;2022-10-31T07:30:15;101989.47;;;12.75;89.96
65131;BME280;51709;54.912;8.316;2022-10-31T07:35:37;101986.84;;;12.78;89.93
65131;BME280;51709;54.912;8.316;2022-10-31T07:40:58;101989.34;;;12.87;89.83
65131;BME280;51709;54.912;8.316;2022-10-31T07:46:23;102004.53;;;13.07;89.70
65131;BME280;51709;54.912;8.316;2022-10-31T07:52:03;102009.34;;;13.34;89.07
65131;BME280;51709;54.912;8.316;2022-10-31T07:57:44;101995.28;;;13.58;88.70
65131;BME280;51709;54.912;8.316;2022-10-31T08:03:15;102004.50;;;13.75;88.69
65131;BME280;51709;54.912;8.316;2022-10-31T08:09:00;102000.94;;;13.82;88.55
65131;BME280;51709;54.912;8.316;2022-10-31T08:14:20;102012.09;;;13.82;89.03
65131;BME280;51709;54.912;8.316;2022-10-31T08:19:43;102013.00;;;13.81;88.95
65131;BME280;51709;54.912;8.316;2022-10-31T08:25:07;102021.56;;;13.82;89.23
65131;BME280;51709;54.912;8.316;2022-10-31T08:30:31;102024.13;;;13.83;89.57
65131;BME280;51709;54.912;8.316;2022-10-31T08:36:10;102022.28;;;13.90;89.24
65131;BME280;51709;54.912;8.316;2022-10-31T08:41:58;102011.81;;;14.01;89.18
65131;BME280;51709;54.912;8.316;2022-10-31T08:47:19;102009.94;;;14.11;89.00
65131;BME280;51709;54.912;8.316;2022-10-31T08:52:41;102011.47;;;14.20;88.84
65131;BME280;51709;54.912;8.316;2022-10-31T08:58:23;102001.81;;;14.31;88.62
65131;BME280;51709;54.912;8.316;2022-10-31T09:03:49;102009.34;;;14.45;88.59
65131;BME280;51709;54.912;8.316;2022-10-31T09:09:09;102014.34;;;14.53;88.49
65131;BME280;51709;54.912;8.316;2022-10-31T09:14:30;102006.38;;;14.63;88.32
65131;BME280;51709;54.912;8.316;2022-10-31T09:20:09;101999.91;;;14.88;87.65
65131;BME280;51709;54.912;8.316;2022-10-31T09:25:30;101982.47;;;14.99;87.42
65131;BME280;51709;54.912;8.316;2022-10-31T09:31:14;101978.44;;;15.25;87.06
65131;BME280;51709;54.912;8.316;2022-10-31T09:36:53;101986.94;;;15.68;86.10
65131;BME280;51709;54.912;8.316;2022-10-31T09:42:29;101979.34;;;16.31;84.89
65131;BME280;51709;54.912;8.316;2022-10-31T09:54:10;102009.00;;;16.84;83.23
65131;BME280;51709;54.912;8.316;2022-10-31T09:59:37;101999.16;;;16.97;82.62
65131;BME280;51709;54.912;8.316;2022-10-31T10:05:01;101996.59;;;17.23;81.52
65131;BME280;51709;54.912;8.316;2022-10-31T10:16:26;102009.75;;;17.74;79.87
65131;BME280;51709;54.912;8.316;2022-10-31T10:34:22;102008.75;;;18.05;77.57
65131;BME280;51709;54.912;8.316;2022-10-31T10:39:48;102002.63;;;18.08;76.48
65131;BME280;51709;54.912;8.316;2022-10-31T10:45:16;102013.09;;;18.05;75.75
65131;BME280;51709;54.912;8.316;2022-10-31T10:50:57;102014.81;;;18.06;74.37
65131;BME280;51709;54.912;8.316;2022-10-31T11:02:16;102018.47;;;17.16;76.30
65131;BME280;51709;54.912;8.316;2022-10-31T11:07:39;102005.72;;;17.08;76.48
65131;BME280;51709;54.912;8.316;2022-10-31T11:18:26;102008.22;;;17.40;74.24
65131;BME280;51709;54.912;8.316;2022-10-31T11:23:47;101998.13;;;17.02;74.57
65131;BME280;51709;54.912;8.316;2022-10-31T11:29:25;102002.41;;;16.72;75.10
65131;BME280;51709;54.912;8.316;2022-10-31T11:34:49;101997.88;;;16.48;75.68
65131;BME280;51709;54.912;8.316;2022-10-31T11:40:18;102005.88;;;17.32;73.42
65131;BME280;51709;54.912;8.316;2022-10-31T11:45:39;101991.72;;;18.47;70.01
65131;BME280;51709;54.912;8.316;2022-10-31T11:51:00;101999.47;;;19.20;67.66
65131;BME280;51709;54.912;8.316;2022-10-31T11:56:20;101997.16;;;18.41;69.58
65131;BME280;51709;54.912;8.316;2022-10-31T12:01:47;101997.75;;;17.43;72.24
65131;BME280;51709;54.912;8.316;2022-10-31T12:07:08;101998.22;;;16.68;73.69
65131;BME280;51709;54.912;8.316;2022-10-31T12:12:45;101982.84;;;15.95;75.23
65131;BME280;51709;54.912;8.316;2022-10-31T12:23:55;101989.63;;;15.63;75.20
65131;BME280;51709;54.912;8.316;2022-10-31T12:35:45;101969.56;;;14.98;76.22
65131;BME280;51709;54.912;8.316;2022-10-31T12:52:51;101949.94;;;14.45;76.98
65131;BME280;51709;54.912;8.316;2022-10-31T12:58:35;101942.97;;;14.47;77.05
65131;BME280;51709;54.912;8.316;2022-10-31T13:04:12;101942.28;;;14.39;77.20
65131;BME280;51709;54.912;8.316;2022-10-31T13:15:23;101935.25;;;14.00;77.97
65131;BME280;51709;54.912;8.316;2022-10-31T13:20:46;101919.81;;;13.97;78.15
65131;BME280;51709;54.912;8.316;2022-10-31T13:26:33;101900.50;;;14.18;77.58
65131;BME280;51709;54.912;8.316;2022-10-31T13:31:55;101902.97;;;14.68;76.31
65131;BME280;51709;54.912;8.316;2022-10-31T13:37:44;101896.84;;;15.13;75.17
65131;BME280;51709;54.912;8.316;2022-10-31T13:49:01;101900.09;;;14.82;76.54
65131;BME280;51709;54.912;8.316;2022-10-31T13:54:33;101885.78;;;14.66;76.92
65131;BME280;51709;54.912;8.316;2022-10-31T13:59:56;101876.09;;;14.35;78.00
65131;BME280;51709;54.912;8.316;2022-10-31T14:05:31;101891.00;;;14.18;78.70
65131;BME280;51709;54.912;8.316;2022-10-31T14:10:54;101877.47;;;14.07;79.43
65131;BME280;51709;54.912;8.316;2022-10-31T14:16:26;101873.28;;;14.01;79.35
65131;BME280;51709;54.912;8.316;2022-10-31T14:21:49;101857.78;;;14.01;79.44
65131;BME280;51709;54.912;8.316;2022-10-31T14:32:39;101865.53;;;14.03;79.48
65131;BME280;51709;54.912;8.316;2022-10-31T14:38:34;101875.16;;;13.93;79.81
65131;BME280;51709;54.912;8.316;2022-10-31T14:44:14;101863.25;;;13.86;80.05
65131;BME280;51709;54.912;8.316;2022-10-31T14:49:46;101866.09;;;13.70;80.06
65131;BME280;51709;54.912;8.316;2022-10-31T14:55:11;101852.72;;;13.48;80.61
65131;BME280;51709;54.912;8.316;2022-10-31T15:00:35;101862.28;;;13.43;80.94
65131;BME280;51709;54.912;8.316;2022-10-31T15:06:00;101840.91;;;13.33;80.97
65131;BME280;51709;54.912;8.316;2022-10-31T15:11:25;101839.44;;;13.18;81.42
65131;BME280;51709;54.912;8.316;2022-10-31T15:16:46;101839.69;;;13.00;81.73
65131;BME280;51709;54.912;8.316;2022-10-31T15:22:10;101833.72;;;12.99;82.02
65131;BME280;51709;54.912;8.316;2022-10-31T15:27:33;101833.59;;;13.07;81.68
65131;BME280;51709;54.912;8.316;2022-10-31T15:32:54;101833.75;;;12.98;81.59
65131;BME280;51709;54.912;8.316;2022-10-31T15:38:18;101833.84;;;12.88;82.32
65131;BME280;51709;54.912;8.316;2022-10-31T15:43:39;101838.34;;;12.75;82.36
65131;BME280;51709;54.912;8.316;2022-10-31T15:49:00;101842.72;;;12.69;82.48
65131;BME280;51709;54.912;8.316;2022-10-31T15:54:21;101841.88;;;12.67;82.58
65131;BME280;51709;54.912;8.316;2022-10-31T15:59:45;101839.41;;;12.60;82.85
65131;BME280;51709;54.912;8.316;2022-10-31T16:05:18;101841.13;;;12.60;82.89
65131;BME280;51709;54.912;8.316;2022-10-31T16:10:39;101841.91;;;12.65;82.89
65131;BME280;51709;54.912;8.316;2022-10-31T16:16:01;101841.84;;;12.70;82.79
65131;BME280;51709;54.912;8.316;2022-10-31T16:21:42;101841.81;;;12.71;82.56
65131;BME280;51709;54.912;8.316;2022-10-31T16:27:15;101835.03;;;12.66;82.70
65131;BME280;51709;54.912;8.316;2022-10-31T16:32:53;101834.25;;;12.60;82.90
65131;BME280;51709;54.912;8.316;2022-10-31T16:38:14;101823.91;;;12.65;83.08
65131;BME280;51709;54.912;8.316;2022-10-31T16:43:34;101816.13;;;12.68;82.96
65131;BME280;51709;54.912;8.316;2022-10-31T16:48:55;101816.06;;;12.73;82.62
65131;BME280;51709;54.912;8.316;2022-10-31T16:54:15;101805.03;;;12.63;82.99
65131;BME280;51709;54.912;8.316;2022-10-31T16:59:35;101796.56;;;12.53;83.49
65131;BME280;51709;54.912;8.316;2022-10-31T17:04:56;101796.69;;;12.45;83.69
65131;BME280;51709;54.912;8.316;2022-10-31T17:10:17;101774.38;;;12.46;83.65
65131;BME280;51709;54.912;8.316;2022-10-31T17:15:42;101782.06;;;12.47;83.69
65131;BME280;51709;54.912;8.316;2022-10-31T17:21:04;101780.25;;;12.54;83.24
65131;BME280;51709;54.912;8.316;2022-10-31T17:26:28;101783.72;;;12.52;83.35
65131;BME280;51709;54.912;8.316;2022-10-31T17:31:48;101782.97;;;12.45;83.51
65131;BME280;51709;54.912;8.316;2022-10-31T17:37:09;101793.34;;;12.37;83.69
65131;BME280;51709;54.912;8.316;2022-10-31T17:42:30;101776.38;;;12.25;84.08
65131;BME280;51709;54.912;8.316;2022-10-31T17:47:52;101766.16;;;12.17;84.05
65131;BME280;51709;54.912;8.316;2022-10-31T17:53:12;101772.22;;;12.13;84.35
65131;BME280;51709;54.912;8.316;2022-10-31T17:58:34;101767.03;;;12.16;84.12
65131;BME280;51709;54.912;8.316;2022-10-31T18:03:56;101771.34;;;12.16;84.04
65131;BME280;51709;54.912;8.316;2022-10-31T18:09:16;101778.19;;;12.15;84.11
65131;BME280;51709;54.912;8.316;2022-10-31T18:14:37;101780.75;;;12.18;84.12
65131;BME280;51709;54.912;8.316;2022-10-31T18:19:57;101778.97;;;12.22;83.82
65131;BME280;51709;54.912;8.316;2022-10-31T18:25:17;101779.03;;;12.17;84.17
65131;BME280;51709;54.912;8.316;2022-10-31T18:30:39;101760.22;;;12.14;84.13
65131;BME280;51709;54.912;8.316;2022-10-31T18:36:04;101750.84;;;12.08;84.42
65131;BME280;51709;54.912;8.316;2022-10-31T18:41:25;101744.06;;;12.01;84.60
65131;BME280;51709;54.912;8.316;2022-10-31T18:46:46;101741.59;;;11.90;84.79
65131;BME280;51709;54.912;8.316;2022-10-31T18:52:06;101728.03;;;11.79;84.90
65131;BME280;51709;54.912;8.316;2022-10-31T18:57:26;101722.13;;;11.69;85.21
65131;BME280;51709;54.912;8.316;2022-10-31T19:02:47;101714.47;;;11.64;85.02
65131;BME280;51709;54.912;8.316;2022-10-31T19:08:08;101686.25;;;11.60;85.08
65131;BME280;51709;54.912;8.316;2022-10-31T19:13:30;101671.72;;;11.57;85.27
65131;BME280;51709;54.912;8.316;2022-10-31T19:18:55;101661.41;;;11.59;85.17
65131;BME280;51709;54.912;8.316;2022-10-31T19:24:16;101658.00;;;11.58;85.27
65131;BME280;51709;54.912;8.316;2022-10-31T19:29:36;101640.88;;;11.55;85.02
65131;BME280;51709;54.912;8.316;2022-10-31T19:34:56;101634.88;;;11.53;85.07
65131;BME280;51709;54.912;8.316;2022-10-31T19:40:17;101616.94;;;11.50;85.42
65131;BME280;51709;54.912;8.316;2022-10-31T19:45:38;101610.97;;;11.48;85.25
65131;BME280;51709;54.912;8.316;2022-10-31T19:51:00;101586.16;;;11.44;85.66
65131;BME280;51709;54.912;8.316;2022-10-31T19:56:23;101587.09;;;11.40;85.55
65131;BME280;51709;54.912;8.316;2022-10-31T20:01:44;101582.81;;;11.37;85.58
65131;BME280;51709;54.912;8.316;2022-10-31T20:07:05;101579.38;;;11.38;85.39
65131;BME280;51709;54.912;8.316;2022-10-31T20:12:25;101575.97;;;11.38;85.47
65131;BME280;51709;54.912;8.316;2022-10-31T20:17:46;101564.00;;;11.35;85.41
65131;BME280;51709;54.912;8.316;2022-10-31T20:23:06;101568.31;;;11.32;85.63
65131;BME280;51709;54.912;8.316;2022-10-31T20:28:29;101546.97;;;11.28;85.89
65131;BME280;51709;54.912;8.316;2022-10-31T20:33:50;101556.41;;;11.26;85.71
65131;BME280;51709;54.912;8.316;2022-10-31T20:39:12;101557.31;;;11.23;85.81
65131;BME280;51709;54.912;8.316;2022-10-31T20:44:33;101555.59;;;11.22;85.97
65131;BME280;51709;54.912;8.316;2022-10-31T20:49:53;101544.47;;;11.23;85.70
65131;BME280;51709;54.912;8.316;2022-10-31T20:55:14;101531.59;;;11.23;85.84
65131;BME280;51709;54.912;8.316;2022-10-31T21:00:35;101517.94;;;11.21;85.91
65131;BME280;51709;54.912;8.316;2022-10-31T21:05:59;101506.78;;;11.22;86.01
65131;BME280;51709;54.912;8.316;2022-10-31T21:11:22;101499.88;;;11.26;85.82
65131;BME280;51709;54.912;8.316;2022-10-31T21:16:43;101492.16;;;11.28;85.84
65131;BME280;51709;54.912;8.316;2022-10-31T21:22:04;101486.97;;;11.32;85.66
65131;BME280;51709;54.912;8.316;2022-10-31T21:27:24;101472.31;;;11.37;85.84
65131;BME280;51709;54.912;8.316;2022-10-31T21:32:45;101451.75;;;11.37;85.95
65131;BME280;51709;54.912;8.316;2022-10-31T21:38:05;101434.59;;;11.39;86.12
65131;BME280;51709;54.912;8.316;2022-10-31T21:43:26;101433.66;;;11.45;85.92
65131;BME280;51709;54.912;8.316;2022-10-31T21:48:48;101406.25;;;11.44;86.18
65131;BME280;51709;54.912;8.316;2022-10-31T21:54:11;101395.13;;;11.44;86.40
65131;BME280;51709;54.912;8.316;2022-10-31T21:59:46;101398.47;;;11.49;86.20
65131;BME280;51709;54.912;8.316;2022-10-31T22:05:08;101383.03;;;11.50;85.95
65131;BME280;51709;54.912;8.316;2022-10-31T22:10:28;101365.13;;;11.44;86.24
65131;BME280;51709;54.912;8.316;2022-10-31T22:15:49;101359.22;;;11.39;86.40
65131;BME280;51709;54.912;8.316;2022-10-31T22:21:15;101348.16;;;11.34;86.52
65131;BME280;51709;54.912;8.316;2022-10-31T22:26:36;101349.78;;;11.39;86.29
65131;BME280;51709;54.912;8.316;2022-10-31T22:31:57;101342.13;;;11.38;86.28
65131;BME280;51709;54.912;8.316;2022-10-31T22:37:20;101332.66;;;11.38;86.44
65131;BME280;51709;54.912;8.316;2022-10-31T22:42:41;101325.00;;;11.37;86.38
65131;BME280;51709;54.912;8.316;2022-10-31T22:48:02;101298.47;;;11.35;86.45
65131;BME280;51709;54.912;8.316;2022-10-31T22:53:23;101295.00;;;11.37;86.12
65131;BME280;51709;54.912;8.316;2022-10-31T22:58:45;101286.47;;;11.35;86.52
65131;BME280;51709;54.912;8.316;2022-10-31T23:04:05;101277.88;;;11.36;86.46
65131;BME280;51709;54.912;8.316;2022-10-31T23:09:26;101268.47;;;11.35;86.68
65131;BME280;51709;54.912;8.316;2022-10-31T23:14:46;101264.19;;;11.36;86.62
65131;BME280;51709;54.912;8.316;2022-10-31T23:20:07;101248.72;;;11.37;86.53
65131;BME280;51709;54.912;8.316;2022-10-31T23:25:27;101243.59;;;11.37;86.52
65131;BME280;51709;54.912;8.316;2022-10-31T23:31:07;101236.66;;;11.41;86.59
65131;BME280;51709;54.912;8.316;2022-10-31T23:36:27;101217.88;;;11.39;86.66
65131;BME280;51709;54.912;8.316;2022-10-31T23:41:48;101204.19;;;11.38;86.50
65131;BME280;51709;54.912;8.316;2022-10-31T23:47:09;101225.69;;;11.33;86.71
65131;BME280;51709;54.912;8.316;2022-10-31T23:52:30;101225.78;;;11.28;86.75
65131;BME280;51709;54.912;8.316;2022-10-31T23:57:50;101221.59;;;11.22;87.00
